Time;durP1;ratioP1;P1;durP2;ratioP2;P2;SDS_P1;SDS_P2;PMS_P1;PMS_P2;Temp;Humidity;BMP_temperature;BMP_pressure;BME280_temperature;BME280_humidity;BME280_pressure;Samples;Min_cycle;Max_cycle;Signal;HPM_P1;HPM_P2
2022/09/27 00:01:39;;;;;;;;;;;;;;;18.57;100.00;98893.38;5101893;28;19920;-68
2022/09/27 00:04:04;;;;;;;;;;;;;;;18.63;100.00;98889.78;5102490;28;19974;-68
2022/09/27 00:06:31;;;;;;;;;;;;;;;18.67;100.00;98882.09;5104323;28;19916;-68
2022/09/27 00:08:57;;;;;;;;;;;;;;;18.62;100.00;98885.47;5105292;28;19943;-68
2022/09/27 00:11:27;;;;;;;;;;;;;;;18.61;100.00;98883.84;5104301;28;19938;-68
2022/09/27 00:13:56;;;;;;;;;;;;;;;18.49;100.00;98881.13;5122473;28;19912;-68
2022/09/27 00:16:22;;;;;;;;;;;;;;;18.64;100.00;98878.00;5103253;28;20022;-68
2022/09/27 00:18:47;;;;;;;;;;;;;;;18.70;100.00;98870.88;5102036;28;19920;-68
2022/09/27 00:21:13;;;;;;;;;;;;;;;18.58;100.00;98864.69;5104971;28;20154;-68
2022/09/27 00:23:38;;;;;;;;;;;;;;;18.58;100.00;98862.81;5104967;28;20338;-68
2022/09/27 00:26:05;;;;;;;;;;;;;;;18.69;100.00;98863.88;5102379;28;19943;-68
2022/09/27 00:28:31;;;;;;;;;;;;;;;18.59;100.00;98858.28;5116842;28;19919;-68
2022/09/27 00:30:56;;;;;;;;;;;;;;;18.50;100.00;98858.63;5104076;28;19983;-68
2022/09/27 00:33:22;;;;;;;;;;;;;;;18.61;100.00;98859.72;5104002;28;20231;-68
2022/09/27 00:35:47;;;;;;;;;;;;;;;18.72;100.00;98863.41;5102471;28;19924;-68
2022/09/27 00:38:12;;;;;;;;;;;;;;;18.89;100.00;98871.56;5101273;28;19912;-68
2022/09/27 00:40:38;;;;;;;;;;;;;;;18.81;100.00;98870.06;5102637;28;19927;-68
2022/09/27 00:43:12;;;;;;;;;;;;;;;18.99;100.00;98858.38;5101949;28;20836;-68
2022/09/27 00:45:37;;;;;;;;;;;;;;;19.11;100.00;98859.97;5101822;28;19916;-68
2022/09/27 00:48:04;;;;;;;;;;;;;;;19.21;100.00;98855.84;5104782;28;19975;-68
2022/09/27 00:50:34;;;;;;;;;;;;;;;19.09;100.00;98864.75;5120223;28;20259;-68
2022/09/27 00:53:08;;;;;;;;;;;;;;;19.13;100.00;98865.09;5101997;28;19923;-68
2022/09/27 00:55:38;;;;;;;;;;;;;;;19.01;100.00;98861.63;5100895;28;20152;-68
2022/09/27 00:58:05;;;;;;;;;;;;;;;19.07;100.00;98850.75;5101321;28;20247;-68
2022/09/27 01:00:30;;;;;;;;;;;;;;;19.14;100.00;98854.13;5104018;28;19938;-68
2022/09/27 01:02:56;;;;;;;;;;;;;;;19.04;100.00;98845.06;5101568;28;19912;-68
2022/09/27 01:05:23;;;;;;;;;;;;;;;19.18;100.00;98837.53;5103207;28;19986;-68
2022/09/27 01:07:49;;;;;;;;;;;;;;;19.27;100.00;98833.41;5103494;28;19912;-68
2022/09/27 01:10:15;;;;;;;;;;;;;;;19.31;100.00;98846.13;5101875;28;20301;-68
2022/09/27 01:12:52;;;;;;;;;;;;;;;19.37;100.00;98842.47;5100630;28;19935;-68
2022/09/27 01:15:18;;;;;;;;;;;;;;;19.27;100.00;98839.59;5099090;28;19916;-68
2022/09/27 01:17:58;;;;;;;;;;;;;;;19.33;99.23;98827.91;5101679;28;19965;-68
2022/09/27 01:20:43;;;;;;;;;;;;;;;19.30;98.25;98827.56;5103803;28;19916;-68
2022/09/27 01:23:11;;;;;;;;;;;;;;;19.21;97.67;98826.31;5102920;28;19912;-68
2022/09/27 01:25:42;;;;;;;;;;;;;;;19.12;98.09;98834.75;5101243;28;19998;-68
2022/09/27 01:28:26;;;;;;;;;;;;;;;19.14;97.82;98840.69;5100468;28;19961;-68
2022/09/27 01:30:52;;;;;;;;;;;;;;;19.01;98.77;98840.16;5100343;28;20229;-68
2022/09/27 01:33:20;;;;;;;;;;;;;;;18.86;97.39;98838.00;5103102;28;19919;-69
2022/09/27 01:35:48;;;;;;;;;;;;;;;18.77;96.47;98824.16;5100903;28;19951;-68
2022/09/27 01:38:42;;;;;;;;;;;;;;;18.70;97.05;98827.97;5100445;28;19919;-68
2022/09/27 01:41:08;;;;;;;;;;;;;;;18.76;96.86;98829.75;5046068;28;19956;-68
2022/09/27 01:43:38;;;;;;;;;;;;;;;18.57;99.05;98839.75;5099784;28;19912;-68
2022/09/27 01:46:07;;;;;;;;;;;;;;;18.58;100.00;98841.38;5097954;28;19915;-68
2022/09/27 01:48:35;;;;;;;;;;;;;;;18.55;99.76;98827.63;5101130;28;20125;-68
2022/09/27 01:51:09;;;;;;;;;;;;;;;18.40;100.00;98834.28;5103136;28;19965;-68
2022/09/27 01:53:50;;;;;;;;;;;;;;;18.51;100.00;98827.28;5102200;28;20613;-68
2022/09/27 01:56:19;;;;;;;;;;;;;;;18.46;100.00;98822.63;5099920;28;19916;-68
2022/09/27 01:59:07;;;;;;;;;;;;;;;18.74;100.00;98821.94;5100129;28;20122;-68
2022/09/27 02:01:34;;;;;;;;;;;;;;;18.70;100.00;98836.03;5097705;28;19952;-68
2022/09/27 02:04:00;;;;;;;;;;;;;;;18.64;100.00;98850.38;5100910;28;19919;-68
2022/09/27 02:06:32;;;;;;;;;;;;;;;18.49;100.00;98838.25;5100818;28;19986;-68
2022/09/27 02:09:04;;;;;;;;;;;;;;;18.55;100.00;98825.75;5102746;28;19919;-68
2022/09/27 02:11:29;;;;;;;;;;;;;;;18.83;100.00;98821.56;5100969;28;19922;-68
2022/09/27 02:14:03;;;;;;;;;;;;;;;18.63;100.00;98822.75;5100978;28;20128;-68
2022/09/27 02:16:37;;;;;;;;;;;;;;;18.73;99.94;98820.31;5102383;28;19925;-68
2022/09/27 02:19:08;;;;;;;;;;;;;;;18.68;100.00;98801.41;5101891;28;20242;-68
2022/09/27 02:22:09;;;;;;;;;;;;;;;18.85;98.12;98792.63;5099343;28;20458;-68
2022/09/27 02:24:42;;;;;;;;;;;;;;;18.98;97.74;98789.66;5077181;28;19916;-69
2022/09/27 02:27:33;;;;;;;;;;;;;;;19.06;97.37;98791.97;5096536;28;19920;-68
2022/09/27 02:30:10;;;;;;;;;;;;;;;18.88;98.27;98802.88;5096498;28;19923;-68
2022/09/27 02:32:36;;;;;;;;;;;;;;;18.95;99.11;98816.97;5100264;28;19912;-68
2022/09/27 02:35:04;;;;;;;;;;;;;;;18.83;99.56;98818.88;5098969;28;19991;-68
2022/09/27 02:37:30;;;;;;;;;;;;;;;18.41;99.72;98768.91;5099263;28;19912;-68
2022/09/27 02:39:56;;;;;;;;;;;;;;;18.68;100.00;98830.91;5100198;28;19931;-68
2022/09/27 02:42:22;;;;;;;;;;;;;;;18.59;100.00;98834.97;5101088;28;19912;-68
2022/09/27 02:44:47;;;;;;;;;;;;;;;18.46;100.00;98837.91;5100463;28;20241;-68
2022/09/27 02:47:12;;;;;;;;;;;;;;;18.75;100.00;98834.28;5098778;28;19912;-68
2022/09/27 02:49:50;;;;;;;;;;;;;;;19.09;96.73;98832.56;5099910;28;19916;-69
2022/09/27 02:52:36;;;;;;;;;;;;;;;18.71;99.03;98827.75;5099858;28;19930;-68
2022/09/27 02:55:13;;;;;;;;;;;;;;;18.58;100.00;98833.34;5099470;28;19912;-68
2022/09/27 02:57:41;;;;;;;;;;;;;;;18.79;99.21;98827.41;5101893;28;19924;-68
2022/09/27 03:00:14;;;;;;;;;;;;;;;18.81;99.33;98827.97;5101641;28;19983;-68
2022/09/27 03:02:42;;;;;;;;;;;;;;;18.91;98.52;98811.28;5100602;28;19922;-68
2022/09/27 03:05:10;;;;;;;;;;;;;;;18.63;99.88;98817.38;5099282;28;20267;-68
2022/09/27 03:07:38;;;;;;;;;;;;;;;18.69;99.65;98803.03;5102108;28;19927;-68
2022/09/27 03:10:04;;;;;;;;;;;;;;;18.69;98.70;98813.75;5101035;28;19920;-68
2022/09/27 03:12:30;;;;;;;;;;;;;;;18.59;99.53;98812.69;5118795;28;19999;-68
2022/09/27 03:14:56;;;;;;;;;;;;;;;18.56;99.39;98821.22;5100323;28;19916;-68
2022/09/27 03:17:21;;;;;;;;;;;;;;;18.51;99.76;98809.34;5099956;28;19924;-68
2022/09/27 03:19:47;;;;;;;;;;;;;;;18.72;97.08;98804.41;5099015;28;20036;-68
2022/09/27 03:22:12;;;;;;;;;;;;;;;18.55;98.41;98798.94;5115177;28;19939;-68
2022/09/27 03:24:37;;;;;;;;;;;;;;;18.43;99.19;98800.84;5098313;28;19924;-68
2022/09/27 03:27:03;;;;;;;;;;;;;;;18.22;99.99;98796.91;5099019;28;19974;-68
2022/09/27 03:29:28;;;;;;;;;;;;;;;18.19;100.00;98786.66;5099989;28;19911;-69
2022/09/27 03:31:53;;;;;;;;;;;;;;;18.09;100.00;98792.59;5101427;28;19908;-68
2022/09/27 03:34:19;;;;;;;;;;;;;;;18.00;100.00;98785.97;5101064;28;19912;-68
2022/09/27 03:36:44;;;;;;;;;;;;;;;18.13;99.70;98791.09;5098952;28;20193;-68
2022/09/27 03:39:09;;;;;;;;;;;;;;;17.97;100.00;98791.78;5106772;28;19916;-68
2022/09/27 03:41:34;;;;;;;;;;;;;;;17.70;100.00;98763.84;5099695;28;19912;-68
2022/09/27 03:44:00;;;;;;;;;;;;;;;18.01;100.00;98784.91;5099056;28;20159;-68
2022/09/27 03:46:25;;;;;;;;;;;;;;;18.21;100.00;98781.06;5099345;28;19933;-68
2022/09/27 03:48:51;;;;;;;;;;;;;;;18.21;99.45;98778.38;5101563;28;20108;-68
2022/09/27 03:51:16;;;;;;;;;;;;;;;18.32;99.87;98780.22;5098770;28;19939;-68
2022/09/27 03:53:42;;;;;;;;;;;;;;;18.34;99.42;98776.28;5098965;28;19916;-68
2022/09/27 03:56:07;;;;;;;;;;;;;;;18.32;99.37;98775.69;5097871;28;20137;-68
2022/09/27 03:58:32;;;;;;;;;;;;;;;18.27;99.17;98777.44;5100027;28;19931;-68
2022/09/27 04:00:58;;;;;;;;;;;;;;;18.29;99.03;98775.34;5099669;28;19943;-68
2022/09/27 04:03:25;;;;;;;;;;;;;;;18.16;99.63;98779.91;5099312;28;19923;-68
2022/09/27 04:05:50;;;;;;;;;;;;;;;18.11;99.81;98763.72;5097934;28;19983;-68
2022/09/27 04:08:15;;;;;;;;;;;;;;;18.05;100.00;98770.00;5101321;28;19923;-68
2022/09/27 04:10:41;;;;;;;;;;;;;;;17.99;100.00;98781.66;5100904;28;19915;-68
2022/09/27 04:13:06;;;;;;;;;;;;;;;18.06;100.00;98776.19;5097850;28;20198;-68
2022/09/27 04:15:31;;;;;;;;;;;;;;;18.05;100.00;98766.50;5099644;28;19950;-68
2022/09/27 04:17:56;;;;;;;;;;;;;;;18.21;100.00;98762.31;5101049;28;19919;-68
2022/09/27 04:20:22;;;;;;;;;;;;;;;18.42;98.50;98761.69;5099213;28;20106;-68
2022/09/27 04:22:47;;;;;;;;;;;;;;;18.17;98.58;98732.50;5098641;28;19916;-68
2022/09/27 04:25:12;;;;;;;;;;;;;;;18.37;98.50;98757.03;5097740;28;19947;-68
2022/09/27 04:27:42;;;;;;;;;;;;;;;18.38;98.03;98763.22;5097876;28;19948;-68
2022/09/27 04:30:08;;;;;;;;;;;;;;;18.04;100.00;98755.00;5098573;28;19955;-68
2022/09/27 04:32:33;;;;;;;;;;;;;;;18.22;100.00;98758.56;5097638;28;19916;-68
2022/09/27 04:37:44;;;;;;;;;;;;;;;18.19;100.00;98775.94;5095508;28;19966;-68
2022/09/27 04:40:09;;;;;;;;;;;;;;;18.29;100.00;98773.47;5102386;28;19957;-68
2022/09/27 04:42:34;;;;;;;;;;;;;;;18.42;98.35;98767.03;5104402;28;19951;-68
2022/09/27 04:44:59;;;;;;;;;;;;;;;18.45;98.16;98764.72;5106020;28;20267;-69
2022/09/27 04:47:25;;;;;;;;;;;;;;;18.69;97.44;98756.63;5103406;28;19943;-68
2022/09/27 04:49:50;;;;;;;;;;;;;;;18.78;96.94;98749.88;5104742;28;19939;-68
2022/09/27 04:52:15;;;;;;;;;;;;;;;18.96;95.72;98754.22;5101881;28;19978;-68
2022/09/27 04:54:41;;;;;;;;;;;;;;;19.07;94.56;98753.34;5101514;28;19947;-68
2022/09/27 04:57:06;;;;;;;;;;;;;;;18.93;94.48;98743.97;5099681;28;19927;-68
2022/09/27 04:59:31;;;;;;;;;;;;;;;18.90;95.62;98747.94;5101962;28;19920;-68
2022/09/27 05:02:00;;;;;;;;;;;;;;;18.98;95.35;98744.88;5100827;28;19914;-68
2022/09/27 05:04:25;;;;;;;;;;;;;;;19.05;95.32;98737.50;5104537;28;19965;-68
2022/09/27 05:06:51;;;;;;;;;;;;;;;19.06;94.27;98738.31;5103127;28;20215;-68
2022/09/27 05:09:16;;;;;;;;;;;;;;;19.13;93.43;98734.41;5101766;28;19912;-68
2022/09/27 05:11:41;;;;;;;;;;;;;;;19.17;93.52;98742.00;5101050;28;19911;-68
2022/09/27 05:14:07;;;;;;;;;;;;;;;18.86;95.09;98762.09;5103737;28;19920;-68
2022/09/27 05:16:33;;;;;;;;;;;;;;;18.89;96.07;98751.69;5103740;28;19908;-68
2022/09/27 05:18:58;;;;;;;;;;;;;;;18.89;95.77;98737.47;5100700;28;19916;-68
2022/09/27 05:21:23;;;;;;;;;;;;;;;18.97;95.36;98745.94;5101536;28;19912;-68
2022/09/27 05:23:49;;;;;;;;;;;;;;;18.97;95.30;98745.13;5101007;28;20124;-68
2022/09/27 05:26:14;;;;;;;;;;;;;;;18.90;95.82;98756.00;5102894;28;19908;-68
2022/09/27 05:28:41;;;;;;;;;;;;;;;19.15;95.67;98747.59;5102301;28;20196;-68
2022/09/27 05:31:07;;;;;;;;;;;;;;;19.07;95.67;98743.44;5101167;28;19915;-68
2022/09/27 05:33:33;;;;;;;;;;;;;;;19.32;95.88;98735.00;5100472;28;20186;-68
2022/09/27 05:35:58;;;;;;;;;;;;;;;19.66;92.67;98726.97;5101180;28;19919;-68
2022/09/27 05:38:24;;;;;;;;;;;;;;;19.94;90.77;98726.06;5103732;28;19911;-68
2022/09/27 05:40:50;;;;;;;;;;;;;;;19.93;90.80;98727.94;5104733;28;20139;-69
2022/09/27 05:43:16;;;;;;;;;;;;;;;20.05;89.38;98730.53;5105058;28;20273;-68
2022/09/27 05:45:42;;;;;;;;;;;;;;;20.01;89.37;98732.09;5104999;28;20389;-69
2022/09/27 05:48:08;;;;;;;;;;;;;;;19.98;88.75;98724.53;5103585;28;20130;-68
2022/09/27 05:50:33;;;;;;;;;;;;;;;19.76;89.78;98709.16;5104225;28;19934;-68
2022/09/27 05:52:58;;;;;;;;;;;;;;;19.65;89.67;98710.06;5104198;28;19912;-68
2022/09/27 05:55:24;;;;;;;;;;;;;;;19.66;90.76;98726.97;5104611;28;19919;-68
2022/09/27 05:57:53;;;;;;;;;;;;;;;19.77;91.37;98739.53;5104686;28;19951;-68
2022/09/27 06:00:18;;;;;;;;;;;;;;;19.75;91.98;98730.88;5104222;28;19980;-69
2022/09/27 06:02:43;;;;;;;;;;;;;;;19.77;91.23;98734.97;5104542;28;19912;-68
2022/09/27 06:05:08;;;;;;;;;;;;;;;19.88;91.60;98727.88;5104103;28;19947;-68
2022/09/27 06:07:34;;;;;;;;;;;;;;;19.92;90.46;98722.81;5103578;28;19982;-68
2022/09/27 06:09:59;;;;;;;;;;;;;;;19.97;89.95;98717.53;5103251;28;19919;-68
2022/09/27 06:12:24;;;;;;;;;;;;;;;20.02;89.61;98720.28;5103368;28;19912;-68
2022/09/27 06:14:50;;;;;;;;;;;;;;;19.98;90.30;98727.22;5102189;28;20104;-68
2022/09/27 06:17:15;;;;;;;;;;;;;;;20.00;89.71;98720.53;5103068;28;19922;-68
2022/09/27 06:19:40;;;;;;;;;;;;;;;20.02;89.48;98712.22;5103027;28;19912;-68
2022/09/27 06:22:05;;;;;;;;;;;;;;;20.02;88.55;98715.72;5102859;28;19951;-68
2022/09/27 06:24:31;;;;;;;;;;;;;;;20.21;86.90;98713.53;5103013;28;19912;-68
2022/09/27 06:26:57;;;;;;;;;;;;;;;20.25;87.31;98716.56;5102727;28;19989;-68
2022/09/27 06:29:22;;;;;;;;;;;;;;;20.16;87.25;98715.34;5100839;28;19920;-68
2022/09/27 06:31:47;;;;;;;;;;;;;;;20.27;86.81;98709.88;5099061;28;19920;-68
2022/09/27 06:34:13;;;;;;;;;;;;;;;20.31;85.87;98719.06;5098374;28;19957;-68
2022/09/27 06:36:38;;;;;;;;;;;;;;;20.17;87.63;98739.28;5098863;28;19919;-68
2022/09/27 06:39:03;;;;;;;;;;;;;;;20.10;88.75;98741.34;5098655;28;19916;-68
2022/09/27 06:41:29;;;;;;;;;;;;;;;20.14;88.23;98744.34;5099783;28;19916;-68
2022/09/27 06:43:55;;;;;;;;;;;;;;;20.24;87.04;98742.63;5098742;28;19916;-68
2022/09/27 06:46:20;;;;;;;;;;;;;;;20.36;86.32;98739.81;5099031;28;19915;-68
2022/09/27 06:48:46;;;;;;;;;;;;;;;20.39;86.43;98744.72;5099542;28;19916;-68
2022/09/27 06:51:11;;;;;;;;;;;;;;;20.16;88.67;98751.09;5097953;28;19947;-68
2022/09/27 06:53:36;;;;;;;;;;;;;;;20.10;88.35;98746.72;5098097;28;19927;-68
2022/09/27 06:56:02;;;;;;;;;;;;;;;20.30;86.21;98735.44;5098598;28;19927;-68
2022/09/27 07:01:11;;;;;;;;;;;;;;;20.54;86.96;98726.09;5097698;28;19934;-68
2022/09/27 07:03:40;;;;;;;;;;;;;;;20.69;86.40;98728.13;5098090;28;19916;-68
2022/09/27 07:06:06;;;;;;;;;;;;;;;20.56;82.87;98726.66;5098789;28;19911;-68
2022/09/27 07:08:32;;;;;;;;;;;;;;;20.62;84.23;98728.31;5096489;28;19947;-68
2022/09/27 07:11:02;;;;;;;;;;;;;;;20.97;83.50;98738.69;5098033;28;20206;-68
2022/09/27 07:13:30;;;;;;;;;;;;;;;21.07;81.70;98737.16;5098445;28;20201;-68
2022/09/27 07:15:55;;;;;;;;;;;;;;;21.48;80.64;98741.88;5097720;28;19931;-68
2022/09/27 07:18:20;;;;;;;;;;;;;;;21.65;77.63;98728.25;5098179;28;19923;-68
2022/09/27 07:20:46;;;;;;;;;;;;;;;22.01;77.97;98723.13;5098168;28;20160;-68
2022/09/27 07:23:11;;;;;;;;;;;;;;;22.13;75.04;98729.16;5097960;28;19916;-68
2022/09/27 07:25:37;;;;;;;;;;;;;;;22.21;74.39;98734.88;5098456;28;19920;-69
2022/09/27 07:28:03;;;;;;;;;;;;;;;22.24;72.62;98728.13;5097441;28;19931;-68
2022/09/27 07:30:28;;;;;;;;;;;;;;;22.25;72.79;98725.19;5096019;28;19916;-69
2022/09/27 07:32:57;;;;;;;;;;;;;;;22.61;71.46;98711.84;5098266;28;20178;-68
2022/09/27 07:35:23;;;;;;;;;;;;;;;22.42;71.26;98716.88;5097155;28;20238;-68
2022/09/27 07:37:48;;;;;;;;;;;;;;;22.39;72.74;98712.03;5098375;28;19923;-68
2022/09/27 07:40:13;;;;;;;;;;;;;;;22.63;71.06;98699.69;5097228;28;19915;-68
2022/09/27 07:42:40;;;;;;;;;;;;;;;22.79;70.31;98705.94;5098348;28;19916;-68
2022/09/27 07:45:06;;;;;;;;;;;;;;;23.01;67.16;98713.06;5097124;28;19919;-68
2022/09/27 07:47:32;;;;;;;;;;;;;;;22.89;69.50;98718.72;5096819;28;19916;-68
2022/09/27 07:49:57;;;;;;;;;;;;;;;23.11;66.69;98715.78;5098065;28;20235;-68
2022/09/27 07:52:22;;;;;;;;;;;;;;;22.99;66.20;98726.00;5097154;28;19943;-68
2022/09/27 07:54:48;;;;;;;;;;;;;;;23.07;67.02;98723.59;5097445;28;19985;-69
2022/09/27 07:57:14;;;;;;;;;;;;;;;22.73;68.45;98728.59;5098042;28;19935;-69
2022/09/27 07:59:39;;;;;;;;;;;;;;;22.36;70.64;98734.13;5095579;28;19912;-68
2022/09/27 08:02:05;;;;;;;;;;;;;;;22.66;67.19;98729.91;5098157;28;19939;-68
2022/09/27 08:04:30;;;;;;;;;;;;;;;22.62;66.38;98726.94;5096947;28;19965;-68
2022/09/27 08:06:56;;;;;;;;;;;;;;;22.82;66.61;98724.34;5095678;28;19920;-68
2022/09/27 08:09:21;;;;;;;;;;;;;;;23.00;65.85;98723.03;5097957;28;19927;-68
2022/09/27 08:11:47;;;;;;;;;;;;;;;22.91;67.17;98721.94;5097017;28;19920;-68
2022/09/27 08:14:13;;;;;;;;;;;;;;;23.02;68.00;98722.78;5098275;28;19923;-69
2022/09/27 08:16:39;;;;;;;;;;;;;;;23.02;67.51;98715.50;5099721;28;20095;-68
2022/09/27 08:19:04;;;;;;;;;;;;;;;23.22;65.92;98706.59;5101231;28;19973;-68
2022/09/27 08:21:29;;;;;;;;;;;;;;;23.60;64.38;98707.16;5101733;28;20264;-69
2022/09/27 08:23:55;;;;;;;;;;;;;;;23.64;65.34;98710.94;5101092;28;19959;-68
2022/09/27 08:26:20;;;;;;;;;;;;;;;23.74;64.23;98705.53;5100770;28;19919;-68
2022/09/27 08:28:46;;;;;;;;;;;;;;;23.50;64.86;98703.34;5101987;28;19931;-68
2022/09/27 08:31:11;;;;;;;;;;;;;;;23.24;65.32;98710.66;5100768;28;19912;-68
2022/09/27 08:33:37;;;;;;;;;;;;;;;23.08;65.99;98703.63;5101690;28;19947;-68
2022/09/27 08:36:02;;;;;;;;;;;;;;;22.84;68.47;98705.97;5100265;28;20016;-68
2022/09/27 08:38:27;;;;;;;;;;;;;;;22.91;66.99;98705.75;5102088;28;19923;-68
2022/09/27 08:40:55;;;;;;;;;;;;;;;22.86;67.54;98701.13;5100411;28;19920;-69
2022/09/27 08:43:26;;;;;;;;;;;;;;;22.73;67.38;98696.22;5101479;28;19923;-69
2022/09/27 08:46:01;;;;;;;;;;;;;;;22.77;67.96;98696.50;5101336;28;19912;-68
2022/09/27 08:48:27;;;;;;;;;;;;;;;22.86;68.47;98678.72;5100532;28;19955;-68
2022/09/27 08:50:52;;;;;;;;;;;;;;;22.85;68.11;98680.63;5100219;28;20114;-68
2022/09/27 08:53:24;;;;;;;;;;;;;;;22.95;67.50;98679.03;5101328;28;19923;-69
2022/09/27 08:55:56;;;;;;;;;;;;;;;23.09;66.60;98678.25;5099598;28;19927;-68
2022/09/27 08:58:25;;;;;;;;;;;;;;;22.95;66.76;98674.44;5100352;28;19916;-68
2022/09/27 09:00:54;;;;;;;;;;;;;;;23.06;67.01;98659.06;5100247;28;19941;-68
2022/09/27 09:03:21;;;;;;;;;;;;;;;23.14;66.40;98664.75;5100667;28;20530;-68
2022/09/27 09:06:07;;;;;;;;;;;;;;;23.12;66.68;98660.69;5099549;28;20152;-68
2022/09/27 09:08:52;;;;;;;;;;;;;;;23.07;66.16;98661.50;5060838;28;19959;-68
2022/09/27 09:14:29;;;;;;;;;;;;;;;23.47;65.43;98660.66;5101131;28;19938;-68
2022/09/27 09:17:10;;;;;;;;;;;;;;;23.28;64.92;98662.31;5100483;28;20198;-68
2022/09/27 09:19:41;;;;;;;;;;;;;;;23.31;64.44;98653.66;5101539;28;19924;-68
2022/09/27 09:22:24;;;;;;;;;;;;;;;23.58;63.37;98650.69;5099701;28;19932;-68
2022/09/27 09:25:19;;;;;;;;;;;;;;;23.54;63.00;98663.09;5099683;28;20138;-68
2022/09/27 09:27:47;;;;;;;;;;;;;;;23.66;62.71;98652.84;5099623;28;19924;-68
2022/09/27 09:30:18;;;;;;;;;;;;;;;23.55;63.28;98633.13;5099764;28;19912;-68
2022/09/27 09:33:04;;;;;;;;;;;;;;;23.58;63.47;98630.97;5098807;28;20255;-68
2022/09/27 09:35:36;;;;;;;;;;;;;;;23.78;62.17;98629.03;5098237;28;19919;-69
2022/09/27 09:38:10;;;;;;;;;;;;;;;23.42;62.86;98617.44;5098834;28;19916;-68
2022/09/27 09:40:47;;;;;;;;;;;;;;;23.45;62.60;98608.81;5100304;28;19920;-68
2022/09/27 09:43:17;;;;;;;;;;;;;;;23.74;61.66;98605.50;5100596;28;19996;-68
2022/09/27 09:45:44;;;;;;;;;;;;;;;23.67;62.78;98600.41;5099402;28;20170;-68
2022/09/27 09:48:15;;;;;;;;;;;;;;;23.94;61.27;98604.66;5099374;28;19920;-68
2022/09/27 09:50:43;;;;;;;;;;;;;;;24.15;60.08;98596.19;5100751;28;19912;-69
2022/09/27 09:53:10;;;;;;;;;;;;;;;24.27;59.78;98589.66;5099384;28;20026;-68
2022/09/27 09:55:38;;;;;;;;;;;;;;;24.19;57.73;98580.19;5099125;28;19978;-68
2022/09/27 09:58:07;;;;;;;;;;;;;;;23.98;58.23;98584.09;5099895;28;19915;-68
2022/09/27 10:00:32;;;;;;;;;;;;;;;23.81;58.35;98579.00;5099712;28;19966;-68
2022/09/27 10:02:58;;;;;;;;;;;;;;;23.83;57.81;98580.34;5099137;28;19947;-68
2022/09/27 10:05:25;;;;;;;;;;;;;;;23.85;59.55;98570.06;5100948;28;19957;-68
2022/09/27 10:07:52;;;;;;;;;;;;;;;23.85;60.26;98561.94;5103473;28;19943;-68
2022/09/27 10:10:18;;;;;;;;;;;;;;;23.74;60.48;98563.09;5103453;28;19919;-68
2022/09/27 10:12:44;;;;;;;;;;;;;;;23.62;59.86;98559.88;5103146;28;19915;-68
2022/09/27 10:15:15;;;;;;;;;;;;;;;23.67;61.78;98570.66;5118627;28;20270;-68
2022/09/27 10:17:43;;;;;;;;;;;;;;;23.71;60.87;98571.75;5102703;28;19923;-68
2022/09/27 10:20:16;;;;;;;;;;;;;;;23.71;60.64;98565.53;5103086;28;19935;-68
2022/09/27 10:22:45;;;;;;;;;;;;;;;23.61;59.79;98557.47;5102442;28;19916;-68
2022/09/27 10:25:10;;;;;;;;;;;;;;;23.70;59.54;98553.91;5103060;28;19911;-68
2022/09/27 10:27:40;;;;;;;;;;;;;;;24.07;59.43;98558.91;5102703;28;19955;-68
2022/09/27 10:30:06;;;;;;;;;;;;;;;24.23;58.74;98553.41;5102883;28;19912;-67
2022/09/27 10:32:35;;;;;;;;;;;;;;;24.11;58.66;98548.34;5102881;28;19916;-68
2022/09/27 10:35:20;;;;;;;;;;;;;;;24.26;58.56;98544.72;5103000;28;19911;-68
2022/09/27 10:37:45;;;;;;;;;;;;;;;24.00;60.04;98544.88;5102310;28;19923;-68
2022/09/27 10:40:32;;;;;;;;;;;;;;;24.09;59.90;98540.50;5102841;28;20142;-68
2022/09/27 10:42:58;;;;;;;;;;;;;;;24.01;57.80;98540.28;5102721;28;19931;-68
2022/09/27 10:45:28;;;;;;;;;;;;;;;24.10;58.31;98523.19;5102980;28;19912;-68
2022/09/27 10:47:53;;;;;;;;;;;;;;;24.16;58.11;98523.97;5102847;28;19920;-69
2022/09/27 10:50:30;;;;;;;;;;;;;;;23.98;57.24;98522.72;5102782;28;19912;-68
2022/09/27 10:53:15;;;;;;;;;;;;;;;24.03;57.52;98516.47;5114145;28;19915;-68
2022/09/27 10:55:41;;;;;;;;;;;;;;;24.03;58.11;98495.66;5102447;28;19951;-69
2022/09/27 10:58:15;;;;;;;;;;;;;;;24.07;58.94;98496.72;5102216;28;19961;-68
2022/09/27 11:00:40;;;;;;;;;;;;;;;24.19;57.30;98499.88;5101194;28;19923;-68
2022/09/27 11:03:11;;;;;;;;;;;;;;;24.20;57.49;98489.88;5102286;28;19945;-68
2022/09/27 11:05:38;;;;;;;;;;;;;;;24.41;57.11;98494.06;5100478;28;19912;-68
2022/09/27 11:08:19;;;;;;;;;;;;;;;24.29;57.88;98484.69;5096789;28;19922;-68
2022/09/27 11:10:58;;;;;;;;;;;;;;;24.41;57.41;98488.66;5096207;28;19912;-68
2022/09/27 11:13:23;;;;;;;;;;;;;;;24.50;55.99;98486.16;5096240;28;19923;-68
2022/09/27 11:16:07;;;;;;;;;;;;;;;24.59;55.83;98481.75;5097483;28;20013;-68
2022/09/27 11:18:51;;;;;;;;;;;;;;;24.81;54.84;98483.97;5097619;28;20109;-68
2022/09/27 11:21:33;;;;;;;;;;;;;;;24.95;54.25;98481.41;5097122;28;19927;-69
2022/09/27 11:24:17;;;;;;;;;;;;;;;24.78;56.56;98471.81;5111694;28;20211;-68
2022/09/27 11:26:53;;;;;;;;;;;;;;;24.93;55.04;98470.88;5097214;28;19912;-68
2022/09/27 11:29:18;;;;;;;;;;;;;;;24.88;54.06;98479.03;5096629;28;19962;-68
2022/09/27 11:31:46;;;;;;;;;;;;;;;24.79;54.72;98478.03;5096139;28;19912;-68
2022/09/27 11:34:22;;;;;;;;;;;;;;;25.03;54.72;98473.53;5096979;28;19955;-68
2022/09/27 11:36:53;;;;;;;;;;;;;;;24.93;53.93;98467.34;5096200;28;20013;-68
2022/09/27 11:39:36;;;;;;;;;;;;;;;25.04;53.75;98469.72;5096321;28;19912;-68
2022/09/27 11:42:24;;;;;;;;;;;;;;;25.14;52.23;98466.91;5094717;28;19912;-68
2022/09/27 11:45:10;;;;;;;;;;;;;;;24.93;52.38;98457.31;5074839;28;20261;-68
2022/09/27 11:47:40;;;;;;;;;;;;;;;25.02;52.89;98458.38;5057672;28;19916;-69
2022/09/27 11:50:25;;;;;;;;;;;;;;;24.95;53.22;98457.03;5094827;28;19985;-68
2022/09/27 11:52:50;;;;;;;;;;;;;;;24.99;53.18;98442.69;5095804;28;19923;-68
2022/09/27 11:55:26;;;;;;;;;;;;;;;25.18;53.11;98445.47;5095753;28;19983;-68
2022/09/27 11:58:09;;;;;;;;;;;;;;;25.17;52.40;98435.72;5096376;28;20194;-68
2022/09/27 12:00:55;;;;;;;;;;;;;;;25.22;51.62;98432.16;5095522;28;19918;-69
2022/09/27 12:03:39;;;;;;;;;;;;;;;25.12;53.97;98423.06;5095435;28;19916;-68
2022/09/27 12:06:12;;;;;;;;;;;;;;;25.22;53.76;98424.84;5095736;28;19912;-68
2022/09/27 12:08:37;;;;;;;;;;;;;;;25.33;53.38;98420.91;5088802;28;19915;-68
2022/09/27 12:11:09;;;;;;;;;;;;;;;25.32;52.27;98419.28;5096924;28;19912;-68
2022/09/27 12:13:40;;;;;;;;;;;;;;;25.55;52.13;98408.69;5095186;28;19969;-68
2022/09/27 12:16:05;;;;;;;;;;;;;;;25.65;51.91;98409.41;5094733;28;19912;-68
2022/09/27 12:18:36;;;;;;;;;;;;;;;25.68;51.27;98408.00;5097189;28;19953;-69
2022/09/27 12:21:02;;;;;;;;;;;;;;;25.57;51.40;98407.31;5096528;28;19977;-69
2022/09/27 12:23:42;;;;;;;;;;;;;;;25.68;51.14;98408.81;5095597;28;19916;-69
2022/09/27 12:26:34;;;;;;;;;;;;;;;25.89;50.33;98412.03;5095045;28;19912;-69
2022/09/27 12:29:12;;;;;;;;;;;;;;;25.91;49.64;98414.44;5092431;28;20075;-69
2022/09/27 12:31:44;;;;;;;;;;;;;;;25.93;49.92;98415.75;5096799;28;20029;-68
2022/09/27 12:34:21;;;;;;;;;;;;;;;25.87;50.48;98406.09;5095155;28;19922;-68
2022/09/27 12:36:50;;;;;;;;;;;;;;;25.92;49.57;98414.16;5095113;28;20214;-69
2022/09/27 12:39:15;;;;;;;;;;;;;;;26.02;50.13;98402.38;5095548;28;19928;-68
2022/09/27 12:41:45;;;;;;;;;;;;;;;26.00;51.11;98396.41;5096382;28;19944;-69
2022/09/27 12:44:10;;;;;;;;;;;;;;;25.97;51.31;98395.09;5095569;28;20283;-68
2022/09/27 12:46:38;;;;;;;;;;;;;;;25.74;50.25;98369.69;5095894;28;19916;-68
2022/09/27 12:49:09;;;;;;;;;;;;;;;25.87;50.06;98387.09;5096160;28;20208;-68
2022/09/27 12:51:45;;;;;;;;;;;;;;;25.79;50.14;98385.06;5094412;28;20018;-69
2022/09/27 12:54:23;;;;;;;;;;;;;;;25.90;50.67;98383.81;5095513;28;19930;-69
2022/09/27 12:57:07;;;;;;;;;;;;;;;25.92;49.83;98376.19;5093641;28;20113;-68
2022/09/27 12:59:33;;;;;;;;;;;;;;;26.00;50.05;98372.00;5094120;28;19911;-69
2022/09/27 13:02:17;;;;;;;;;;;;;;;25.91;50.45;98365.63;5098441;28;19912;-68
2022/09/27 13:05:01;;;;;;;;;;;;;;;26.00;53.74;98361.13;5098377;28;19919;-68